Time;durP1;ratioP1;P1;durP2;ratioP2;P2;SDS_P1;SDS_P2;PMS_P1;PMS_P2;Temp;Humidity;BMP_temperature;BMP_pressure;BME280_temperature;BME280_humidity;BME280_pressure;Samples;Min_cycle;Max_cycle;Signal;HPM_P1;HPM_P2
2022/03/20 00:01:33;;;;;;;3.15;2.85;;;;;;;16.40;53.01;97473.50;10391934;28;20429;-23
2022/03/20 00:06:34;;;;;;;2.67;2.37;;;;;;;16.39;52.43;97469.28;10396433;28;20061;-22
2022/03/20 00:11:35;;;;;;;2.22;2.03;;;;;;;16.38;52.63;97461.66;10388613;28;20053;-22
2022/03/20 00:16:35;;;;;;;2.77;2.57;;;;;;;16.37;52.97;97470.91;10386256;28;20374;-22
2022/03/20 00:21:35;;;;;;;2.60;2.40;;;;;;;16.38;53.38;97481.88;10389191;28;20489;-22
2022/03/20 00:26:39;;;;;;;2.93;2.63;;;;;;;16.36;52.75;97469.16;10388074;28;20042;-23
2022/03/20 00:31:39;;;;;;;3.22;2.92;;;;;;;16.40;54.93;97470.13;10384200;28;20285;-22
2022/03/20 00:36:40;;;;;;;2.83;2.63;;;;;;;16.41;54.62;97461.72;10387344;28;20049;-23
2022/03/20 00:41:40;;;;;;;2.43;2.23;;;;;;;16.40;54.44;97458.34;10386869;28;20038;-22
2022/03/20 00:46:40;;;;;;;3.15;2.75;;;;;;;16.40;54.03;97460.88;10389290;28;20221;-23
2022/03/20 00:51:42;;;;;;;3.03;2.73;;;;;;;16.37;53.76;97463.31;10394710;28;20041;-23
2022/03/20 00:56:43;;;;;;;2.60;2.40;;;;;;;16.38;53.21;97457.44;10386409;28;20455;-23
2022/03/20 01:01:44;;;;;;;2.93;2.63;;;;;;;16.35;53.09;97457.38;10386507;28;20088;-22
2022/03/20 01:06:44;;;;;;;2.55;2.35;;;;;;;16.33;53.06;97448.91;10387366;28;20803;-22
2022/03/20 01:11:44;;;;;;;2.80;2.60;;;;;;;16.35;52.87;97452.31;10388146;28;20075;-22
2022/03/20 01:16:45;;;;;;;2.60;2.40;;;;;;;16.33;52.99;97446.38;10386936;28;20424;-21
2022/03/20 01:21:46;;;;;;;3.25;2.95;;;;;;;16.34;53.79;97445.56;10391914;28;20033;-21
2022/03/20 01:26:46;;;;;;;2.92;2.63;;;;;;;16.33;53.09;97446.38;10386535;28;20037;-22
2022/03/20 01:31:47;;;;;;;3.03;2.60;;;;;;;16.34;52.81;97450.59;10388462;28;20034;-23
2022/03/20 01:36:47;;;;;;;3.30;3.00;;;;;;;16.32;53.24;97447.19;10386338;28;20302;-22
2022/03/20 01:41:48;;;;;;;3.00;2.60;;;;;;;16.33;54.62;97446.38;10385502;28;20079;-25
2022/03/20 01:46:49;;;;;;;3.20;2.90;;;;;;;16.34;54.71;97445.56;10388553;28;20030;-21
2022/03/20 01:57:09;;;;;;;3.10;2.83;;;;;;;16.36;54.17;97440.53;10386190;28;20080;-22
2022/03/20 02:02:11;;;;;;;2.53;2.33;;;;;;;16.35;53.14;97442.19;10385267;28;20315;-24
2022/03/20 02:07:12;;;;;;;2.85;2.65;;;;;;;16.34;53.36;97430.38;10394383;28;20413;-22
2022/03/20 02:12:13;;;;;;;3.00;2.70;;;;;;;16.34;53.75;97434.56;10389107;28;20096;-23
2022/03/20 02:17:13;;;;;;;2.90;2.70;;;;;;;16.32;53.28;97423.59;10399595;28;20586;-24
2022/03/20 02:22:13;;;;;;;2.97;2.75;;;;;;;16.33;54.07;97427.81;10392175;28;20033;-24
2022/03/20 02:27:16;;;;;;;3.28;2.97;;;;;;;16.32;53.67;97421.06;10388762;28;20053;-22
2022/03/20 02:32:19;;;;;;;3.20;2.90;;;;;;;16.31;52.94;97419.38;10399082;28;20033;-23
2022/03/20 02:37:23;;;;;;;3.22;2.97;;;;;;;16.31;53.01;97420.25;10392091;28;20034;-22
2022/03/20 02:42:24;;;;;;;3.08;2.78;;;;;;;16.30;52.81;97413.44;10391100;28;20084;-22
2022/03/20 02:47:26;;;;;;;2.58;2.38;;;;;;;16.29;53.41;97416.81;10398636;28;20044;-23
2022/03/20 02:52:29;;;;;;;3.22;2.53;;;;;;;16.29;53.45;97419.31;10393614;28;20026;-22
2022/03/20 02:57:31;;;;;;;3.33;3.03;;;;;;;16.31;54.36;97430.34;10390918;28;20034;-23
2022/03/20 03:02:45;;;;;;;3.38;3.08;;;;;;;16.30;54.78;97423.56;10390203;28;20125;-23
2022/03/20 03:13:10;;;;;;;3.60;3.15;;;;;;;16.31;53.95;97430.34;10393056;28;20127;-21
2022/03/20 03:18:10;;;;;;;3.33;3.03;;;;;;;16.30;53.20;97428.59;10392495;28;20072;-23
2022/03/20 03:23:11;;;;;;;3.13;2.83;;;;;;;16.30;53.66;97436.19;10389641;28;20076;-22
2022/03/20 03:28:12;;;;;;;2.58;2.38;;;;;;;16.30;53.53;97431.13;10384547;28;20030;-22
2022/03/20 03:33:14;;;;;;;3.03;2.72;;;;;;;16.21;53.73;97425.91;10388496;28;20034;-22
2022/03/20 03:38:17;;;;;;;2.67;2.47;;;;;;;16.28;53.32;97434.47;10394548;28;20037;-22
2022/03/20 03:43:19;;;;;;;3.08;2.75;;;;;;;16.27;53.76;97443.72;10389633;28;20038;-23
2022/03/20 03:48:19;;;;;;;2.60;2.40;;;;;;;16.27;53.35;97458.88;10393696;28;20044;-25
2022/03/20 03:53:20;;;;;;;2.55;2.35;;;;;;;16.26;53.27;97457.19;10384509;28;20032;-22
2022/03/20 03:58:21;;;;;;;2.63;2.42;;;;;;;16.25;53.53;97458.00;10394697;28;20040;-21
2022/03/20 04:03:22;;;;;;;3.28;2.95;;;;;;;16.26;53.36;97467.28;10392868;28;20190;-22
2022/03/20 04:08:22;;;;;;;2.70;2.50;;;;;;;16.28;54.01;97469.84;10396778;28;20033;-22
2022/03/20 04:13:23;;;;;;;3.07;2.77;;;;;;;16.29;54.67;97479.13;10389063;28;20408;-22
2022/03/20 04:18:23;;;;;;;3.63;3.23;;;;;;;16.29;54.37;97485.03;10389404;28;20116;-22
2022/03/20 04:28:46;;;;;;;3.83;2.67;;;;;;;16.27;53.53;97478.25;10389017;28;20195;-23
2022/03/20 04:33:53;;;;;;;3.17;2.88;;;;;;;16.26;53.78;97477.38;10390526;28;20029;-21
2022/03/20 04:38:56;;;;;;;2.83;2.63;;;;;;;16.25;53.45;97469.78;10389112;28;20294;-22
2022/03/20 04:43:57;;;;;;;2.80;2.60;;;;;;;16.24;53.32;97474.00;10381116;28;20280;-22
2022/03/20 04:59:55;;;;;;;3.22;2.80;;;;;;;16.24;53.10;97476.50;10173999;29;20607;-23
2022/03/20 05:04:56;;;;;;;2.37;2.17;;;;;;;16.23;54.23;97481.53;10344869;28;20050;-23
2022/03/20 05:15:15;;;;;;;2.78;2.55;;;;;;;16.20;53.94;97492.41;10386508;28;20381;-21
2022/03/20 05:20:16;;;;;;;3.15;2.85;;;;;;;16.20;53.56;97497.47;10386602;28;20033;-24
2022/03/20 05:25:18;;;;;;;3.15;2.85;;;;;;;16.19;54.59;97497.47;10390773;28;20046;-22
2022/03/20 05:30:18;;;;;;;3.10;2.70;;;;;;;16.25;54.52;97493.38;10387519;28;20121;-21
2022/03/20 05:35:19;;;;;;;3.85;3.50;;;;;;;16.23;54.36;97502.59;10381669;28;20030;-22
2022/03/20 05:40:19;;;;;;;2.42;2.22;;;;;;;16.24;53.37;97500.91;10386231;28;20399;-22
2022/03/20 05:45:20;;;;;;;2.83;2.60;;;;;;;16.23;53.24;97512.72;10390656;28;20456;-22
2022/03/20 05:50:23;;;;;;;2.97;2.70;;;;;;;16.21;53.82;97519.38;10377660;28;20316;-23
2022/03/20 05:58:01;;;;;;;2.85;2.63;;;;;;;16.14;54.06;97502.41;10391724;28;20312;-21
2022/03/20 06:00:44;;;;;;;2.40;2.20;;;;;;;16.20;54.01;97525.25;10395263;28;20521;-21
2022/03/20 06:05:47;;;;;;;2.37;2.17;;;;;;;16.20;52.88;97527.78;10402020;28;20034;-24
2022/03/20 06:10:48;;;;;;;2.60;2.40;;;;;;;16.18;53.68;97519.31;10394884;28;20296;-23
2022/03/20 06:15:48;;;;;;;2.55;2.35;;;;;;;16.19;54.15;97532.81;10392446;28;20048;-22
2022/03/20 06:20:49;;;;;;;2.40;2.20;;;;;;;16.19;53.67;97530.28;10392385;28;20494;-22
2022/03/20 06:25:52;;;;;;;2.37;2.17;;;;;;;16.18;53.94;97533.66;10397589;28;20034;-21
2022/03/20 06:30:53;;;;;;;2.95;2.67;;;;;;;16.18;54.13;97544.59;10389462;28;20047;-22
2022/03/20 06:35:54;;;;;;;2.60;2.40;;;;;;;16.17;54.44;97547.94;10393447;28;20405;-22
2022/03/20 06:40:54;;;;;;;3.30;3.00;;;;;;;16.18;54.33;97558.91;10392147;28;20034;-22
2022/03/20 06:45:56;;;;;;;2.47;2.27;;;;;;;16.15;54.83;97549.59;10397166;28;20084;-23
2022/03/20 06:50:57;;;;;;;3.90;2.30;;;;;;;16.21;53.60;97584.22;10395773;28;20034;-22
2022/03/20 06:55:57;;;;;;;3.22;2.92;;;;;;;16.17;54.01;97588.34;10397209;28;20029;-23
2022/03/20 07:00:57;;;;;;;2.40;2.20;;;;;;;16.18;53.96;97599.34;10393654;28;20064;-24
2022/03/20 07:05:59;;;;;;;2.60;2.40;;;;;;;16.17;54.11;97612.75;10398050;28;20300;-21
2022/03/20 07:10:59;;;;;;;2.33;2.13;;;;;;;16.17;54.41;97630.44;10393397;28;20049;-22
2022/03/20 07:16:00;;;;;;;3.47;3.05;;;;;;;16.17;53.65;97633.84;10393366;28;20420;-22
2022/03/20 07:21:00;;;;;;;3.63;2.88;;;;;;;16.16;53.58;97637.19;10390412;28;20041;-23
2022/03/20 07:31:20;;;;;;;2.83;2.38;;;;;;;16.16;54.28;97652.34;10391024;28;20087;-23
2022/03/20 07:36:20;;;;;;;2.77;2.57;;;;;;;16.16;54.54;97661.56;10395570;28;20044;-22
2022/03/20 07:41:21;;;;;;;2.60;2.40;;;;;;;16.16;54.18;97677.59;10388578;28;20288;-22
2022/03/20 07:46:21;;;;;;;2.60;2.40;;;;;;;16.14;54.35;97673.31;10392827;28;20040;-21
2022/03/20 07:51:22;;;;;;;2.27;2.07;;;;;;;16.14;54.63;97664.09;10396906;28;20243;-23
2022/03/20 07:56:23;;;;;;;2.57;2.37;;;;;;;16.17;54.78;97679.31;10388889;28;20033;-21
2022/03/20 08:01:24;;;;;;;2.70;2.50;;;;;;;16.17;54.43;97689.41;10394853;28;20038;-22
2022/03/20 08:06:26;;;;;;;2.85;2.58;;;;;;;16.16;54.10;97697.81;10396520;28;20058;-22
2022/03/20 08:11:28;;;;;;;2.83;2.63;;;;;;;16.16;53.85;97697.81;10388784;28;20034;-21
2022/03/20 08:16:30;;;;;;;2.55;2.35;;;;;;;16.15;53.95;97701.16;10387165;28;20050;-23
2022/03/20 08:21:33;;;;;;;2.90;2.60;;;;;;;16.14;54.04;97698.59;10389257;28;20040;-22
2022/03/20 08:26:34;;;;;;;2.80;2.60;;;;;;;16.14;53.66;97693.53;10387702;28;20493;-21
2022/03/20 08:31:35;;;;;;;2.60;2.40;;;;;;;16.12;53.64;97696.00;10385985;28;20106;-22
2022/03/20 08:36:35;;;;;;;2.37;2.17;;;;;;;16.12;54.16;97696.00;10388578;28;20045;-22
2022/03/20 08:41:36;;;;;;;2.43;2.23;;;;;;;16.13;54.58;97692.66;10385963;28;20493;-23
2022/03/20 08:46:37;;;;;;;2.88;2.58;;;;;;;16.13;54.21;97691.81;10391280;28;20321;-23
2022/03/20 08:51:39;;;;;;;2.58;2.38;;;;;;;16.12;54.52;97690.97;10394708;28;20042;-23
2022/03/20 08:56:40;;;;;;;2.63;2.42;;;;;;;16.12;53.92;97685.91;10388445;28;20382;-21
2022/03/20 09:01:40;;;;;;;2.67;2.43;;;;;;;16.10;53.83;97679.97;10390830;28;20308;-22
2022/03/20 09:06:43;;;;;;;2.80;2.60;;;;;;;16.14;54.33;97676.72;10394797;28;20111;-22
2022/03/20 09:11:45;;;;;;;3.08;2.78;;;;;;;16.17;54.60;97664.16;10390012;28;20515;-22
2022/03/20 09:22:11;;;;;;;2.38;2.17;;;;;;;16.11;53.92;97658.94;10392421;28;20034;-25
2022/03/20 09:27:12;;;;;;;2.47;1.90;;;;;;;16.07;54.24;97652.13;10390291;28;20456;-21
2022/03/20 09:32:13;;;;;;;2.53;2.33;;;;;;;16.12;53.96;97660.66;10400176;28;20033;-23
2022/03/20 09:37:13;;;;;;;2.83;2.53;;;;;;;16.12;54.26;97655.59;10395138;28;20041;-23
2022/03/20 09:42:14;;;;;;;2.20;1.95;;;;;;;16.11;53.54;97664.00;10392331;28;20029;-24
2022/03/20 09:47:18;;;;;;;2.63;2.42;;;;;;;16.12;54.40;97654.75;10399063;28;20037;-22
2022/03/20 09:52:19;;;;;;;3.35;3.05;;;;;;;16.10;54.17;97647.13;10397246;28;20034;-23
2022/03/20 09:57:19;;;;;;;2.55;2.35;;;;;;;16.10;53.90;97652.19;10390886;28;20065;-21
2022/03/20 10:02:26;;;;;;;2.42;2.22;;;;;;;16.10;54.08;97654.72;10393024;28;20044;-22
2022/03/20 10:07:31;;;;;;;2.38;2.15;;;;;;;16.10;54.19;97634.50;10398095;28;20029;-21
2022/03/20 10:12:33;;;;;;;2.75;2.55;;;;;;;16.10;53.76;97647.13;10390228;28;20128;-21
2022/03/20 10:17:33;;;;;;;2.50;2.20;;;;;;;15.93;53.88;97615.56;10403824;28;20036;-23
2022/03/20 10:22:33;;;;;;;2.40;2.20;;;;;;;16.15;54.50;97643.06;10399373;28;20033;-22
2022/03/20 10:27:34;;;;;;;2.33;2.07;;;;;;;16.20;54.25;97651.56;10394014;28;20296;-23
2022/03/20 10:32:36;;;;;;;2.30;2.10;;;;;;;16.23;54.27;97643.22;10395876;28;20033;-23
2022/03/20 10:37:55;;;;;;;2.20;2.05;;;;;;;16.15;54.03;97635.47;10391710;28;20326;-22
2022/03/20 10:43:16;;;;;;;2.30;1.83;;;;;;;16.05;54.04;97628.50;10394871;28;20030;-23
2022/03/20 10:48:25;;;;;;;2.40;2.20;;;;;;;16.11;54.41;97643.78;10395575;28;20029;-21
2022/03/20 10:53:26;;;;;;;2.35;2.15;;;;;;;16.11;54.40;97642.94;10386831;28;20026;-23
2022/03/20 10:58:28;;;;;;;3.15;2.13;;;;;;;16.10;54.30;97642.09;10393649;28;20104;-21
2022/03/20 11:03:32;;;;;;;2.28;2.08;;;;;;;16.11;54.36;97632.84;10398946;28;20048;-23
2022/03/20 11:08:32;;;;;;;2.38;2.17;;;;;;;16.10;53.62;97637.03;10391662;28;20112;-22
2022/03/20 11:13:37;;;;;;;2.10;1.90;;;;;;;16.09;53.95;97625.22;10392598;28;20030;-21
2022/03/20 11:18:41;;;;;;;2.10;1.90;;;;;;;16.03;54.35;97614.13;10391627;28;20061;-22
2022/03/20 11:23:44;;;;;;;2.28;2.08;;;;;;;16.09;53.36;97625.22;10392638;28;20498;-21
2022/03/20 11:28:45;;;;;;;2.33;2.13;;;;;;;16.10;54.20;97628.63;10389226;28;20472;-23
2022/03/20 11:33:47;;;;;;;2.35;2.15;;;;;;;16.10;54.21;97628.63;10392795;28;20083;-21
2022/03/20 11:39:08;;;;;;;2.38;2.13;;;;;;;16.18;54.73;97624.59;10390887;28;20033;-23
2022/03/20 11:44:22;;;;;;;3.03;2.30;;;;;;;16.23;54.30;97625.53;10390230;28;20634;-22
2022/03/20 11:49:23;;;;;;;2.30;2.10;;;;;;;16.18;54.67;97620.38;10392913;28;20091;-21
2022/03/20 11:54:39;;;;;;;2.15;1.95;;;;;;;16.12;54.14;97625.28;10393828;28;20105;-23
2022/03/20 11:59:47;;;;;;;2.20;1.98;;;;;;;16.09;53.01;97625.22;10387399;28;20139;-22
2022/03/20 12:04:57;;;;;;;2.03;1.85;;;;;;;16.08;53.19;97608.34;10397207;28;20038;-23
2022/03/20 12:10:10;;;;;;;1.92;1.83;;;;;;;16.11;53.36;97607.59;10390361;28;20405;-21
2022/03/20 12:15:11;;;;;;;1.92;1.77;;;;;;;16.15;53.16;97597.59;10389453;28;20031;-23
2022/03/20 12:20:11;;;;;;;2.50;1.83;;;;;;;16.11;53.09;97593.25;10373677;28;20068;-21
2022/03/20 12:25:12;;;;;;;3.00;2.70;;;;;;;16.12;53.37;97574.75;10372859;28;20038;-21
2022/03/20 12:30:13;;;;;;;8.30;3.05;;;;;;;16.16;53.04;97596.75;10373271;28;20041;-23
2022/03/20 12:35:16;;;;;;;3.30;2.00;;;;;;;15.62;53.86;97600.47;10376720;28;20032;-22
2022/03/20 12:40:20;;;;;;;6.60;4.35;;;;;;;15.48;50.38;97589.19;10376475;28;20127;-22
2022/03/20 12:45:21;;;;;;;8.52;5.53;;;;;;;15.42;49.08;97589.03;10380406;28;20409;-20
2022/03/20 12:50:24;;;;;;;11.65;6.57;;;;;;;15.62;48.66;97574.41;10375936;28;20033;-20
2022/03/20 12:55:30;;;;;;;17.83;7.50;;;;;;;15.75;48.05;97572.22;10387368;28;20031;-21
2022/03/20 13:00:33;;;;;;;12.68;7.35;;;;;;;15.60;47.78;97586.13;10382539;28;20068;-19
2022/03/20 13:05:45;;;;;;;11.15;7.00;;;;;;;15.40;48.22;97573.00;10370874;28;20593;-19
2022/03/20 13:10:45;;;;;;;21.85;8.65;;;;;;;15.57;47.85;97569.25;10382805;28;20037;-21
2022/03/20 13:15:47;;;;;;;12.63;6.10;;;;;;;15.55;47.69;97563.31;10384249;28;20477;-20
2022/03/20 13:20:49;;;;;;;8.93;7.20;;;;;;;15.51;47.44;97566.56;10383595;28;20505;-20
2022/03/20 13:25:52;;;;;;;14.50;7.15;;;;;;;15.63;47.38;97566.88;10385144;28;20494;-20
2022/03/20 13:30:56;;;;;;;15.25;6.90;;;;;;;15.68;46.55;97557.72;10394964;28;20033;-20
2022/03/20 13:36:00;;;;;;;10.55;6.35;;;;;;;15.86;46.94;97557.31;10364096;28;20092;-21
2022/03/20 13:41:14;;;;;;;9.02;5.88;;;;;;;15.71;46.20;97560.31;10377643;28;20052;-21
2022/03/20 13:46:19;;;;;;;13.00;6.68;;;;;;;15.43;46.63;97557.94;10374603;28;20037;-21
2022/03/20 13:51:23;;;;;;;11.77;6.68;;;;;;;15.79;46.55;97558.81;10375172;28;20049;-22
2022/03/20 13:56:27;;;;;;;17.42;6.63;;;;;;;15.72;44.75;97551.94;10363849;28;20128;-21
2022/03/20 14:01:28;;;;;;;13.95;6.63;;;;;;;16.02;47.05;97557.69;10367178;28;20053;-21
2022/03/20 14:06:40;;;;;;;14.20;7.15;;;;;;;16.17;45.05;97547.94;10368659;28;20041;-21
2022/03/20 14:11:41;;;;;;;8.20;5.68;;;;;;;16.14;44.68;97541.97;10368610;28;20057;-20
2022/03/20 14:16:59;;;;;;;14.25;6.78;;;;;;;16.25;43.79;97551.50;10374803;28;20042;-20
2022/03/20 14:22:01;;;;;;;10.90;6.03;;;;;;;16.23;43.52;97552.25;10374257;28;20066;-21
2022/03/20 14:27:01;;;;;;;12.27;5.88;;;;;;;16.15;44.86;97546.19;10387591;28;20045;-20
2022/03/20 14:42:53;;;;;;;13.63;6.18;;;;;;;16.18;44.73;97556.38;10381487;28;20034;-20
2022/03/20 14:47:56;;;;;;;11.15;6.47;;;;;;;16.17;44.90;97547.94;10381643;28;20038;-20
2022/03/20 14:52:56;;;;;;;11.35;6.13;;;;;;;16.06;43.68;97549.38;10376244;28;20119;-20
2022/03/20 14:57:57;;;;;;;9.32;6.53;;;;;;;15.91;44.22;97546.50;10373922;28;20120;-21
2022/03/20 15:02:58;;;;;;;8.57;6.32;;;;;;;16.01;44.25;97545.88;10378499;28;20034;-20
2022/03/20 15:13:17;;;;;;;11.68;6.40;;;;;;;16.05;40.40;97502.22;10393421;28;20021;-22
2022/03/20 15:18:18;;;;;;;8.07;5.43;;;;;;;15.97;42.47;97534.03;10386173;28;20413;-20
2022/03/20 15:23:19;;;;;;;16.87;6.80;;;;;;;16.09;42.56;97544.38;10393888;28;20394;-21
2022/03/20 15:28:19;;;;;;;16.10;6.72;;;;;;;16.32;35.88;97540.69;10393256;28;20429;-19
2022/03/20 15:33:19;;;;;;;14.40;6.00;;;;;;;16.26;40.63;97548.13;10389417;28;20035;-21
2022/03/20 15:38:21;;;;;;;13.30;5.60;;;;;;;16.15;41.94;97534.44;10387274;28;20780;-21
2022/03/20 15:43:22;;;;;;;17.70;5.68;;;;;;;16.16;42.17;97536.13;10387022;28;20442;-21
2022/03/20 15:48:22;;;;;;;11.30;5.53;;;;;;;15.81;43.57;97537.00;10392976;28;20048;-21
2022/03/20 15:53:24;;;;;;;13.53;5.83;;;;;;;15.97;43.40;97545.78;10396351;28;20417;-21
2022/03/20 15:58:25;;;;;;;8.00;4.55;;;;;;;15.91;44.04;97533.00;10385980;28;20116;-21
2022/03/20 16:03:26;;;;;;;11.05;5.25;;;;;;;15.65;44.54;97531.56;10389109;28;20050;-22
2022/03/20 16:08:28;;;;;;;9.52;4.90;;;;;;;15.83;45.41;97535.38;10384371;28;20498;-21
2022/03/20 16:13:29;;;;;;;8.50;4.78;;;;;;;15.81;45.39;97546.25;10380813;28;20405;-21
2022/03/20 16:18:30;;;;;;;11.35;4.95;;;;;;;15.89;45.07;97545.63;10389012;28;20042;-21
2022/03/20 16:28:50;;;;;;;8.95;4.72;;;;;;;15.96;44.63;97562.59;10387401;28;20599;-21
2022/03/20 16:33:51;;;;;;;9.90;4.65;;;;;;;15.93;45.51;97562.53;10387305;28;20108;-20
2022/03/20 16:38:52;;;;;;;6.15;3.78;;;;;;;15.72;45.74;97557.00;10387608;28;20043;-21
2022/03/20 16:43:52;;;;;;;7.68;4.13;;;;;;;15.68;46.12;97567.81;10383838;28;20545;-22
2022/03/20 16:48:52;;;;;;;10.40;4.97;;;;;;;15.52;45.79;97568.25;10389608;28;20041;-20
2022/03/20 16:53:53;;;;;;;8.97;3.97;;;;;;;15.50;46.42;97569.91;10387875;28;20037;-22
2022/03/20 16:58:54;;;;;;;17.75;5.32;;;;;;;15.90;44.29;97572.56;10394989;28;20120;-21
2022/03/20 17:03:54;;;;;;;20.55;5.30;;;;;;;15.86;43.98;97577.53;10390583;28;20048;-21
2022/03/20 17:08:55;;;;;;;13.43;4.80;;;;;;;15.50;45.80;97584.16;10383385;28;20386;-21
2022/03/20 17:13:55;;;;;;;14.85;4.88;;;;;;;15.35;45.50;97587.16;10382726;28;20036;-19
2022/03/20 17:18:56;;;;;;;26.02;6.68;;;;;;;15.74;44.73;97584.78;10389798;28;20035;-21
2022/03/20 17:23:57;;;;;;;20.58;5.18;;;;;;;15.97;45.26;97592.09;10393718;28;20493;-22
2022/03/20 17:28:57;;;;;;;12.60;5.97;;;;;;;16.03;45.51;97591.41;10385247;28;20037;-21
2022/03/20 17:33:58;;;;;;;20.50;5.10;;;;;;;16.02;45.20;97599.78;10388287;28;20029;-20
2022/03/20 17:38:58;;;;;;;12.10;5.27;;;;;;;16.01;45.75;97603.09;10389095;28;20041;-20
2022/03/20 17:44:04;;;;;;;11.15;5.10;;;;;;;16.03;45.46;97609.91;10383375;28;20304;-22
2022/03/20 17:49:06;;;;;;;13.27;4.72;;;;;;;16.02;45.62;97607.38;10399539;28;20464;-22
2022/03/20 17:54:06;;;;;;;17.80;5.93;;;;;;;16.03;46.00;97609.91;10395718;28;20037;-21
2022/03/20 17:59:24;;;;;;;19.48;5.90;;;;;;;16.03;45.66;97614.97;10395846;28;20417;-21
2022/03/20 18:09:44;;;;;;;30.08;7.00;;;;;;;15.95;46.03;97610.56;10390618;28;20045;-22
2022/03/20 18:14:44;;;;;;;16.65;7.40;;;;;;;16.04;46.51;97636.03;10394081;28;20049;-22
2022/03/20 18:19:44;;;;;;;20.57;6.77;;;;;;;16.08;46.09;97640.31;10390241;28;20493;-21
2022/03/20 18:24:45;;;;;;;29.40;6.67;;;;;;;16.13;47.12;97641.31;10379450;28;20061;-21
2022/03/20 18:29:46;;;;;;;18.77;5.90;;;;;;;16.20;47.62;97649.06;10385757;28;20358;-22
2022/03/20 18:34:46;;;;;;;12.73;5.13;;;;;;;16.11;47.06;97643.78;10386009;28;20029;-22
2022/03/20 18:39:46;;;;;;;18.10;5.57;;;;;;;16.14;46.71;97643.88;10379809;28;20103;-21
2022/03/20 18:44:47;;;;;;;15.00;5.67;;;;;;;16.13;46.30;97671.63;10388849;28;20033;-22
2022/03/20 18:49:50;;;;;;;13.48;5.72;;;;;;;16.10;46.92;97669.03;10375893;28;20037;-21
2022/03/20 18:54:51;;;;;;;17.00;6.07;;;;;;;16.09;46.68;97670.69;10388606;28;20037;-22
2022/03/20 18:59:51;;;;;;;14.60;5.95;;;;;;;16.10;47.27;97677.44;10385110;28;20029;-22
2022/03/20 19:04:52;;;;;;;23.83;6.13;;;;;;;16.14;46.95;97674.19;10384771;28;20037;-22
2022/03/20 19:09:52;;;;;;;20.63;5.60;;;;;;;16.16;47.07;97691.88;10385594;28;20064;-22
2022/03/20 19:14:52;;;;;;;28.60;6.55;;;;;;;16.15;48.26;97693.59;10378104;28;20393;-22
2022/03/20 19:19:54;;;;;;;11.63;6.30;;;;;;;16.14;46.78;97689.34;10385602;28;20030;-22
2022/03/20 19:24:54;;;;;;;19.23;5.93;;;;;;;16.18;48.49;97696.16;10381461;28;20057;-22
2022/03/20 19:29:55;;;;;;;20.30;7.13;;;;;;;16.27;49.46;97696.38;10379039;28;20044;-22
2022/03/20 19:40:14;;;;;;;20.88;7.78;;;;;;;16.22;48.72;97702.16;10380931;28;20088;-22
2022/03/20 19:45:14;;;;;;;18.30;5.53;;;;;;;16.17;48.62;97697.00;10384360;28;20037;-22
2022/03/20 19:50:18;;;;;;;16.30;5.38;;;;;;;16.17;48.12;97714.69;10381786;28;20308;-22
2022/03/20 19:55:22;;;;;;;15.15;5.30;;;;;;;16.13;47.85;97702.75;10381973;28;20029;-21
2022/03/20 20:00:22;;;;;;;17.60;5.15;;;;;;;16.15;47.42;97702.81;10377104;28;20045;-22
2022/03/20 20:05:23;;;;;;;14.90;5.47;;;;;;;16.14;47.65;97707.03;10380877;28;20037;-22
2022/03/20 20:10:23;;;;;;;15.82;5.00;;;;;;;16.15;47.69;97716.31;10378771;28;20319;-22
2022/03/20 20:15:23;;;;;;;15.60;5.27;;;;;;;16.14;47.83;97713.75;10375811;28;20041;-22
2022/03/20 20:20:24;;;;;;;11.75;4.45;;;;;;;16.15;47.83;97712.91;10379227;28;20362;-22
2022/03/20 20:25:25;;;;;;;10.93;5.45;;;;;;;16.13;48.39;97715.41;10374646;28;20042;-22
2022/03/20 20:30:27;;;;;;;13.67;5.83;;;;;;;16.25;49.98;97725.81;10371391;28;20041;-22
2022/03/20 20:35:27;;;;;;;11.73;4.40;;;;;;;16.27;49.59;97729.25;10376084;28;20296;-22
2022/03/20 20:40:30;;;;;;;11.57;5.53;;;;;;;16.27;49.65;97738.50;10380826;28;20040;-21
2022/03/20 20:45:30;;;;;;;9.85;4.75;;;;;;;16.20;48.16;97745.06;10377413;28;20049;-22
2022/03/20 20:50:31;;;;;;;12.45;4.72;;;;;;;16.22;49.19;97742.56;10379463;28;20042;-22
2022/03/20 20:55:31;;;;;;;15.65;4.82;;;;;;;16.23;48.84;97745.16;10379090;28;20049;-21
2022/03/20 21:00:31;;;;;;;9.57;5.32;;;;;;;16.23;47.99;97750.22;10376628;28;20037;-22
2022/03/20 21:05:32;;;;;;;9.40;4.77;;;;;;;16.23;48.76;97750.22;10383265;28;20478;-22
2022/03/20 21:15:52;;;;;;;9.65;5.32;;;;;;;16.24;48.31;97767.06;10387058;28;20124;-21
2022/03/20 21:20:58;;;;;;;10.30;4.20;;;;;;;16.24;48.95;97782.25;10389034;28;20037;-21
2022/03/20 21:25:58;;;;;;;9.50;4.72;;;;;;;16.25;49.13;97788.13;10382103;28;20037;-22
2022/03/20 21:30:59;;;;;;;10.30;4.50;;;;;;;16.27;48.78;97792.41;10383746;28;20038;-22
2022/03/20 21:35:59;;;;;;;7.50;4.25;;;;;;;16.31;49.48;97794.22;10382757;28;20494;-22
2022/03/20 21:41:02;;;;;;;8.93;3.93;;;;;;;16.31;49.60;97801.78;10381407;28;20049;-22
2022/03/20 21:46:03;;;;;;;9.27;4.90;;;;;;;16.31;49.21;97804.31;10386499;28;20478;-21
2022/03/20 21:51:06;;;;;;;9.93;4.18;;;;;;;16.29;49.21;97808.47;10383807;28;20041;-21
2022/03/20 21:56:06;;;;;;;6.80;3.80;;;;;;;16.27;48.84;97806.72;10380063;28;20030;-23
2022/03/20 22:01:06;;;;;;;11.30;4.70;;;;;;;16.25;48.88;97814.25;10381652;28;20030;-21
2022/03/20 22:06:07;;;;;;;10.50;4.70;;;;;;;16.23;49.52;97809.97;10386432;28;20288;-22
2022/03/20 22:11:07;;;;;;;8.97;4.70;;;;;;;16.23;48.97;97817.56;10385743;28;20064;-22
2022/03/20 22:16:08;;;;;;;9.50;4.30;;;;;;;16.24;48.62;97821.78;10382392;28;20494;-21
2022/03/20 22:21:08;;;;;;;7.67;4.23;;;;;;;16.18;48.72;97822.50;10386222;28;20061;-22
2022/03/20 22:26:09;;;;;;;9.00;3.87;;;;;;;16.15;48.77;97812.31;10377125;28;20304;-22
2022/03/20 22:31:11;;;;;;;9.13;3.83;;;;;;;16.21;48.95;97822.56;10387827;28;20100;-22
2022/03/20 22:41:33;;;;;;;6.65;4.18;;;;;;;16.22;49.48;97829.34;10390316;28;20045;-22
2022/03/20 22:46:34;;;;;;;8.82;3.58;;;;;;;16.29;49.84;97821.09;10391387;28;20048;-21
2022/03/20 22:51:34;;;;;;;8.82;4.07;;;;;;;16.30;49.58;97827.00;10390966;28;20375;-21
2022/03/20 22:56:36;;;;;;;6.28;3.80;;;;;;;16.26;49.64;97833.66;10387659;28;20033;-22
2022/03/20 23:01:37;;;;;;;6.18;3.33;;;;;;;16.23;48.76;97835.25;10387990;28;20048;-21
2022/03/20 23:06:38;;;;;;;8.05;4.53;;;;;;;16.20;48.34;97836.00;10385420;28;20042;-22
2022/03/20 23:11:39;;;;;;;7.05;4.32;;;;;;;16.22;49.43;97838.59;10390914;28;20409;-22
2022/03/20 23:16:40;;;;;;;6.78;3.83;;;;;;;16.19;49.00;97849.47;10391124;28;20437;-22
2022/03/20 23:21:40;;;;;;;6.45;4.22;;;;;;;16.18;48.36;97837.66;10387946;28;20038;-22
2022/03/20 23:26:41;;;;;;;5.13;3.43;;;;;;;16.18;49.04;97837.66;10388041;28;20033;-22
2022/03/20 23:31:41;;;;;;;5.83;3.53;;;;;;;16.18;48.51;97845.22;10384270;28;20527;-22
2022/03/20 23:36:41;;;;;;;5.75;3.63;;;;;;;16.18;49.14;97840.19;10385865;28;20112;-22
2022/03/20 23:47:01;;;;;;;7.60;3.63;;;;;;;16.19;48.91;97849.47;10392115;28;20064;-22
2022/03/20 23:52:01;;;;;;;9.35;4.18;;;;;;;16.25;50.47;97843.72;10385869;28;20033;-21
2022/03/20 23:57:02;;;;;;;5.87;3.30;;;;;;;16.30;51.06;97850.59;10384379;28;20041;-22
